Farrar, Missouri
Current Conditions -  °F | °C
As of 5:52 AM on Saturday 20 Dec 2014 (Local Time) from KMDH Reporting Station
Overcast Overcast  
Wind Chill: 33°   Ceiling: 4200
Heat Index: 33°   Visibility: 9mi
Dew Point: 28°   Wind: 3mph
Humidity: 82%   Direction: 90°E
Pressure: 30.27"   Gusts: NA
Location:  37.7°N, 89.69°W
Report Text: KMDH 201152Z AUTO 09003KT 9SM OVC042 01/M02 A3027 RMK AO2 SLP254 T00061022 10006 20006 50001
Loading
Personal Weather Stations






























Interactive Weather Map New forecast layout! Learn more

10-Day Weather Forecast

Advertisements
Track Severe Weather on mobile